Sage, Wyoming
Current Conditions -  °F | °C
As of 1:53 PM on Thursday 27 Nov 2014 (Local Time) from KEVW Reporting Station
Clear Clear  
Wind Chill: 52°   Ceiling: Unl
Heat Index: 52°   Visibility: 10mi
Dew Point: 24°   Wind: 13mph
Humidity: 34%   Direction: 230°SW
Pressure: 30.29"   Gusts: NA
Location:  41.81°N, 110.96°W
Report Text: KEVW 272053Z AUTO 23011KT 10SM CLR 11/M04 A3029 RMK AO2 SLP223 T01111044 56016
Loading
Personal Weather Stations






























Interactive Weather Map New forecast layout! Learn more

10-Day Weather Forecast

Advertisements
Track Severe Weather on mobile